sensor_id;sensor_type;location;lat;lon;timestamp;temperature;humidity
1025;DHT22;501;48.214;11.350;2023-08-12T00:01:48;18.80;56.30
1025;DHT22;501;48.214;11.350;2023-08-12T00:04:14;18.80;56.50
1025;DHT22;501;48.214;11.350;2023-08-12T00:06:41;18.80;56.90
1025;DHT22;501;48.214;11.350;2023-08-12T00:09:07;18.70;56.90
1025;DHT22;501;48.214;11.350;2023-08-12T00:11:35;18.70;56.90
1025;DHT22;501;48.214;11.350;2023-08-12T00:14:00;18.70;56.90
1025;DHT22;501;48.214;11.350;2023-08-12T00:16:26;18.70;57.00
1025;DHT22;501;48.214;11.350;2023-08-12T00:18:51;18.70;56.90
1025;DHT22;501;48.214;11.350;2023-08-12T00:21:17;18.60;57.60
1025;DHT22;501;48.214;11.350;2023-08-12T00:23:43;18.60;57.90
1025;DHT22;501;48.214;11.350;2023-08-12T00:26:10;18.60;57.70
1025;DHT22;501;48.214;11.350;2023-08-12T00:28:36;18.60;57.70
1025;DHT22;501;48.214;11.350;2023-08-12T00:31:02;18.60;57.80
1025;DHT22;501;48.214;11.350;2023-08-12T00:33:28;18.50;57.90
1025;DHT22;501;48.214;11.350;2023-08-12T00:35:54;18.50;57.70
1025;DHT22;501;48.214;11.350;2023-08-12T00:38:19;18.50;57.70
1025;DHT22;501;48.214;11.350;2023-08-12T00:40:45;18.40;58.00
1025;DHT22;501;48.214;11.350;2023-08-12T00:43:11;18.40;58.30
1025;DHT22;501;48.214;11.350;2023-08-12T00:45:37;18.40;58.20
1025;DHT22;501;48.214;11.350;2023-08-12T00:48:06;18.30;58.90
1025;DHT22;501;48.214;11.350;2023-08-12T00:50:33;18.30;58.90
1025;DHT22;501;48.214;11.350;2023-08-12T00:52:59;18.20;58.70
1025;DHT22;501;48.214;11.350;2023-08-12T00:55:25;18.20;59.10
1025;DHT22;501;48.214;11.350;2023-08-12T00:57:51;18.20;59.30
1025;DHT22;501;48.214;11.350;2023-08-12T01:00:17;18.10;59.80
1025;DHT22;501;48.214;11.350;2023-08-12T01:02:48;18.10;59.00
1025;DHT22;501;48.214;11.350;2023-08-12T01:05:15;18.10;59.30
1025;DHT22;501;48.214;11.350;2023-08-12T01:07:44;18.10;59.70
1025;DHT22;501;48.214;11.350;2023-08-12T01:10:12;18.00;59.70
1025;DHT22;501;48.214;11.350;2023-08-12T01:12:56;18.00;60.10
1025;DHT22;501;48.214;11.350;2023-08-12T01:15:24;18.00;59.50
1025;DHT22;501;48.214;11.350;2023-08-12T01:17:54;17.90;60.50
1025;DHT22;501;48.214;11.350;2023-08-12T01:20:23;17.90;60.10
1025;DHT22;501;48.214;11.350;2023-08-12T01:23:14;17.90;60.00
1025;DHT22;501;48.214;11.350;2023-08-12T01:25:40;17.90;60.20
1025;DHT22;501;48.214;11.350;2023-08-12T01:28:06;17.80;60.00
1025;DHT22;501;48.214;11.350;2023-08-12T01:30:34;17.80;59.70
1025;DHT22;501;48.214;11.350;2023-08-12T01:33:09;17.80;59.70
1025;DHT22;501;48.214;11.350;2023-08-12T01:35:49;17.80;59.80
1025;DHT22;501;48.214;11.350;2023-08-12T01:38:17;17.80;59.80
1025;DHT22;501;48.214;11.350;2023-08-12T01:40:44;17.80;60.00
1025;DHT22;501;48.214;11.350;2023-08-12T01:43:11;17.70;60.10
1025;DHT22;501;48.214;11.350;2023-08-12T01:45:37;17.70;60.30
1025;DHT22;501;48.214;11.350;2023-08-12T01:48:03;17.70;60.20
1025;DHT22;501;48.214;11.350;2023-08-12T01:50:29;17.70;60.50
1025;DHT22;501;48.214;11.350;2023-08-12T01:52:55;17.60;60.70
1025;DHT22;501;48.214;11.350;2023-08-12T01:55:20;17.60;61.10
1025;DHT22;501;48.214;11.350;2023-08-12T01:57:46;17.60;60.70
1025;DHT22;501;48.214;11.350;2023-08-12T02:00:11;17.60;61.10
1025;DHT22;501;48.214;11.350;2023-08-12T02:02:37;17.50;61.10
1025;DHT22;501;48.214;11.350;2023-08-12T02:05:03;17.50;61.00
1025;DHT22;501;48.214;11.350;2023-08-12T02:07:29;17.50;61.60
1025;DHT22;501;48.214;11.350;2023-08-12T02:09:54;17.40;62.10
1025;DHT22;501;48.214;11.350;2023-08-12T02:12:20;17.40;63.20
1025;DHT22;501;48.214;11.350;2023-08-12T02:14:45;17.40;62.90
1025;DHT22;501;48.214;11.350;2023-08-12T02:17:11;17.40;63.10
1025;DHT22;501;48.214;11.350;2023-08-12T02:19:37;17.30;63.50
1025;DHT22;501;48.214;11.350;2023-08-12T02:22:02;17.30;63.30
1025;DHT22;501;48.214;11.350;2023-08-12T02:24:29;17.30;64.20
1025;DHT22;501;48.214;11.350;2023-08-12T02:26:54;17.30;64.20
1025;DHT22;501;48.214;11.350;2023-08-12T02:29:20;17.30;63.60
1025;DHT22;501;48.214;11.350;2023-08-12T02:31:46;17.20;63.10
1025;DHT22;501;48.214;11.350;2023-08-12T02:34:11;17.20;62.70
1025;DHT22;501;48.214;11.350;2023-08-12T02:36:37;17.20;62.30
1025;DHT22;501;48.214;11.350;2023-08-12T02:39:03;17.20;62.40
1025;DHT22;501;48.214;11.350;2023-08-12T02:41:30;17.20;63.10
1025;DHT22;501;48.214;11.350;2023-08-12T02:43:55;17.10;62.90
1025;DHT22;501;48.214;11.350;2023-08-12T02:46:21;17.10;63.00
1025;DHT22;501;48.214;11.350;2023-08-12T02:48:47;17.10;63.90
1025;DHT22;501;48.214;11.350;2023-08-12T02:51:13;17.10;64.10
1025;DHT22;501;48.214;11.350;2023-08-12T02:53:39;17.00;64.50
1025;DHT22;501;48.214;11.350;2023-08-12T02:56:04;17.00;65.30
1025;DHT22;501;48.214;11.350;2023-08-12T02:58:30;17.00;65.30
1025;DHT22;501;48.214;11.350;2023-08-12T03:00:56;17.00;64.00
1025;DHT22;501;48.214;11.350;2023-08-12T03:03:21;17.00;64.00
1025;DHT22;501;48.214;11.350;2023-08-12T03:05:48;16.90;63.90
1025;DHT22;501;48.214;11.350;2023-08-12T03:08:13;16.90;63.70
1025;DHT22;501;48.214;11.350;2023-08-12T03:10:40;16.90;63.30
1025;DHT22;501;48.214;11.350;2023-08-12T03:13:05;16.90;63.90
1025;DHT22;501;48.214;11.350;2023-08-12T03:15:31;16.80;63.80
1025;DHT22;501;48.214;11.350;2023-08-12T03:17:57;16.80;64.50
1025;DHT22;501;48.214;11.350;2023-08-12T03:20:23;16.80;63.80
1025;DHT22;501;48.214;11.350;2023-08-12T03:22:48;16.80;63.80
1025;DHT22;501;48.214;11.350;2023-08-12T03:25:14;16.80;63.80
1025;DHT22;501;48.214;11.350;2023-08-12T03:27:42;16.80;64.40
1025;DHT22;501;48.214;11.350;2023-08-12T03:30:08;16.80;63.50
1025;DHT22;501;48.214;11.350;2023-08-12T03:32:34;16.70;63.00
1025;DHT22;501;48.214;11.350;2023-08-12T03:35:00;16.70;63.20
1025;DHT22;501;48.214;11.350;2023-08-12T03:37:26;16.70;63.70
1025;DHT22;501;48.214;11.350;2023-08-12T03:39:52;16.70;63.70
1025;DHT22;501;48.214;11.350;2023-08-12T03:42:17;16.60;63.60
1025;DHT22;501;48.214;11.350;2023-08-12T03:44:44;16.60;63.20
1025;DHT22;501;48.214;11.350;2023-08-12T03:47:09;16.60;63.40
1025;DHT22;501;48.214;11.350;2023-08-12T03:49:36;16.60;63.30
1025;DHT22;501;48.214;11.350;2023-08-12T03:52:01;16.60;62.90
1025;DHT22;501;48.214;11.350;2023-08-12T03:54:27;16.60;63.50
1025;DHT22;501;48.214;11.350;2023-08-12T03:56:53;16.50;63.60
1025;DHT22;501;48.214;11.350;2023-08-12T03:59:18;16.50;64.10
1025;DHT22;501;48.214;11.350;2023-08-12T04:01:44;16.50;64.10
1025;DHT22;501;48.214;11.350;2023-08-12T04:04:09;16.50;64.50
1025;DHT22;501;48.214;11.350;2023-08-12T04:06:35;16.40;63.90
1025;DHT22;501;48.214;11.350;2023-08-12T04:09:02;16.40;64.00
1025;DHT22;501;48.214;11.350;2023-08-12T04:11:27;16.40;63.50
1025;DHT22;501;48.214;11.350;2023-08-12T04:13:53;16.40;63.80
1025;DHT22;501;48.214;11.350;2023-08-12T04:16:18;16.40;64.20
1025;DHT22;501;48.214;11.350;2023-08-12T04:18:44;16.30;66.00
1025;DHT22;501;48.214;11.350;2023-08-12T04:21:10;16.30;67.20
1025;DHT22;501;48.214;11.350;2023-08-12T04:23:36;16.30;66.90
1025;DHT22;501;48.214;11.350;2023-08-12T04:26:02;16.30;67.30
1025;DHT22;501;48.214;11.350;2023-08-12T04:28:27;16.30;68.60
1025;DHT22;501;48.214;11.350;2023-08-12T04:30:53;16.30;70.00
1025;DHT22;501;48.214;11.350;2023-08-12T04:33:19;16.40;69.20
1025;DHT22;501;48.214;11.350;2023-08-12T04:35:47;16.40;68.60
1025;DHT22;501;48.214;11.350;2023-08-12T04:38:13;16.30;66.90
1025;DHT22;501;48.214;11.350;2023-08-12T04:40:39;16.40;66.70
1025;DHT22;501;48.214;11.350;2023-08-12T04:43:05;16.40;66.00
1025;DHT22;501;48.214;11.350;2023-08-12T04:45:31;16.40;66.10
1025;DHT22;501;48.214;11.350;2023-08-12T04:47:57;16.50;65.80
1025;DHT22;501;48.214;11.350;2023-08-12T04:50:23;16.50;66.00
1025;DHT22;501;48.214;11.350;2023-08-12T04:52:48;16.60;66.10
1025;DHT22;501;48.214;11.350;2023-08-12T04:55:14;16.60;65.20
1025;DHT22;501;48.214;11.350;2023-08-12T04:57:40;16.60;65.10
1025;DHT22;501;48.214;11.350;2023-08-12T05:00:06;16.60;65.20
1025;DHT22;501;48.214;11.350;2023-08-12T05:02:35;16.70;65.80
1025;DHT22;501;48.214;11.350;2023-08-12T05:05:01;16.70;66.10
1025;DHT22;501;48.214;11.350;2023-08-12T05:07:27;16.70;66.40
1025;DHT22;501;48.214;11.350;2023-08-12T05:09:52;16.80;66.70
1025;DHT22;501;48.214;11.350;2023-08-12T05:12:18;16.80;67.30
1025;DHT22;501;48.214;11.350;2023-08-12T05:14:43;16.90;67.00
1025;DHT22;501;48.214;11.350;2023-08-12T05:17:09;16.90;66.70
1025;DHT22;501;48.214;11.350;2023-08-12T05:19:35;17.00;66.60
1025;DHT22;501;48.214;11.350;2023-08-12T05:22:00;17.00;66.90
1025;DHT22;501;48.214;11.350;2023-08-12T05:24:26;17.10;67.50
1025;DHT22;501;48.214;11.350;2023-08-12T05:26:52;17.10;68.10
1025;DHT22;501;48.214;11.350;2023-08-12T05:29:17;17.10;68.40
1025;DHT22;501;48.214;11.350;2023-08-12T05:31:44;17.20;69.10
1025;DHT22;501;48.214;11.350;2023-08-12T05:34:09;17.20;69.20
1025;DHT22;501;48.214;11.350;2023-08-12T05:36:36;17.30;69.80
1025;DHT22;501;48.214;11.350;2023-08-12T05:39:02;17.40;68.80
1025;DHT22;501;48.214;11.350;2023-08-12T05:41:28;17.40;68.70
1025;DHT22;501;48.214;11.350;2023-08-12T05:43:54;17.50;68.80
1025;DHT22;501;48.214;11.350;2023-08-12T05:46:20;17.50;68.50
1025;DHT22;501;48.214;11.350;2023-08-12T05:48:45;17.60;67.90
1025;DHT22;501;48.214;11.350;2023-08-12T05:51:11;17.70;67.60
1025;DHT22;501;48.214;11.350;2023-08-12T05:53:37;17.80;67.10
1025;DHT22;501;48.214;11.350;2023-08-12T05:56:03;17.90;67.20
1025;DHT22;501;48.214;11.350;2023-08-12T05:58:29;18.00;67.30
1025;DHT22;501;48.214;11.350;2023-08-12T06:00:54;18.10;67.70
1025;DHT22;501;48.214;11.350;2023-08-12T06:03:20;18.10;67.40
1025;DHT22;501;48.214;11.350;2023-08-12T06:05:46;18.20;67.30
1025;DHT22;501;48.214;11.350;2023-08-12T06:08:12;18.30;67.70
1025;DHT22;501;48.214;11.350;2023-08-12T06:10:38;18.50;67.70
1025;DHT22;501;48.214;11.350;2023-08-12T06:13:04;18.60;68.00
1025;DHT22;501;48.214;11.350;2023-08-12T06:15:29;18.70;66.30
1025;DHT22;501;48.214;11.350;2023-08-12T06:17:55;18.90;62.90
1025;DHT22;501;48.214;11.350;2023-08-12T06:20:22;19.00;61.50
1025;DHT22;501;48.214;11.350;2023-08-12T06:22:48;19.10;62.00
1025;DHT22;501;48.214;11.350;2023-08-12T06:25:13;19.20;62.10
1025;DHT22;501;48.214;11.350;2023-08-12T06:27:39;19.20;60.80
1025;DHT22;501;48.214;11.350;2023-08-12T06:30:05;19.20;61.60
1025;DHT22;501;48.214;11.350;2023-08-12T06:32:33;19.30;60.90
1025;DHT22;501;48.214;11.350;2023-08-12T06:34:58;19.30;61.50
1025;DHT22;501;48.214;11.350;2023-08-12T06:37:24;19.30;62.20
1025;DHT22;501;48.214;11.350;2023-08-12T06:39:49;19.40;62.60
1025;DHT22;501;48.214;11.350;2023-08-12T06:42:16;19.50;62.50
1025;DHT22;501;48.214;11.350;2023-08-12T06:44:41;19.50;62.40
1025;DHT22;501;48.214;11.350;2023-08-12T06:47:07;19.60;62.70
1025;DHT22;501;48.214;11.350;2023-08-12T06:49:33;19.70;61.90
1025;DHT22;501;48.214;11.350;2023-08-12T06:51:58;19.70;61.80
1025;DHT22;501;48.214;11.350;2023-08-12T06:54:24;19.80;61.80
1025;DHT22;501;48.214;11.350;2023-08-12T06:56:50;19.90;61.40
1025;DHT22;501;48.214;11.350;2023-08-12T06:59:15;20.00;60.50
1025;DHT22;501;48.214;11.350;2023-08-12T07:01:41;20.00;60.40
1025;DHT22;501;48.214;11.350;2023-08-12T07:04:07;20.10;60.40
1025;DHT22;501;48.214;11.350;2023-08-12T07:06:32;20.20;60.10
1025;DHT22;501;48.214;11.350;2023-08-12T07:08:58;20.30;61.10
1025;DHT22;501;48.214;11.350;2023-08-12T07:11:23;20.40;60.60
1025;DHT22;501;48.214;11.350;2023-08-12T07:13:49;20.50;59.50
1025;DHT22;501;48.214;11.350;2023-08-12T07:16:15;20.60;59.10
1025;DHT22;501;48.214;11.350;2023-08-12T07:18:40;20.70;58.70
1025;DHT22;501;48.214;11.350;2023-08-12T07:21:06;20.80;57.90
1025;DHT22;501;48.214;11.350;2023-08-12T07:23:31;20.90;56.70
1025;DHT22;501;48.214;11.350;2023-08-12T07:25:57;21.00;56.40
1025;DHT22;501;48.214;11.350;2023-08-12T07:28:23;21.10;53.50
1025;DHT22;501;48.214;11.350;2023-08-12T07:30:49;21.30;53.20
1025;DHT22;501;48.214;11.350;2023-08-12T07:33:15;21.40;54.20
1025;DHT22;501;48.214;11.350;2023-08-12T07:35:41;21.50;54.30
1025;DHT22;501;48.214;11.350;2023-08-12T07:38:07;21.70;54.80
1025;DHT22;501;48.214;11.350;2023-08-12T07:40:33;21.90;52.00
1025;DHT22;501;48.214;11.350;2023-08-12T07:42:58;22.00;51.10
1025;DHT22;501;48.214;11.350;2023-08-12T07:45:24;22.20;51.30
1025;DHT22;501;48.214;11.350;2023-08-12T07:47:50;22.30;51.40
1025;DHT22;501;48.214;11.350;2023-08-12T07:50:16;22.40;51.50
1025;DHT22;501;48.214;11.350;2023-08-12T07:52:42;22.50;51.50
1025;DHT22;501;48.214;11.350;2023-08-12T07:55:07;22.60;51.70
1025;DHT22;501;48.214;11.350;2023-08-12T07:57:33;22.80;51.80
1025;DHT22;501;48.214;11.350;2023-08-12T07:59:59;22.90;51.90
1025;DHT22;501;48.214;11.350;2023-08-12T08:02:24;23.00;51.30
1025;DHT22;501;48.214;11.350;2023-08-12T08:04:50;23.20;49.50
1025;DHT22;501;48.214;11.350;2023-08-12T08:07:16;23.30;51.00
1025;DHT22;501;48.214;11.350;2023-08-12T08:09:42;23.50;47.80
1025;DHT22;501;48.214;11.350;2023-08-12T08:12:09;23.70;48.10
1025;DHT22;501;48.214;11.350;2023-08-12T08:14:35;23.80;46.30
1025;DHT22;501;48.214;11.350;2023-08-12T08:17:01;24.00;46.00
1025;DHT22;501;48.214;11.350;2023-08-12T08:19:27;24.10;46.10
1025;DHT22;501;48.214;11.350;2023-08-12T08:21:52;24.30;45.30
1025;DHT22;501;48.214;11.350;2023-08-12T08:24:18;24.30;46.70
1025;DHT22;501;48.214;11.350;2023-08-12T08:26:43;24.50;47.30
1025;DHT22;501;48.214;11.350;2023-08-12T08:29:11;24.60;46.10
1025;DHT22;501;48.214;11.350;2023-08-12T08:31:36;24.70;44.40
1025;DHT22;501;48.214;11.350;2023-08-12T08:34:02;24.80;42.10
1025;DHT22;501;48.214;11.350;2023-08-12T08:36:28;24.90;41.70
1025;DHT22;501;48.214;11.350;2023-08-12T08:38:53;25.00;41.50
1025;DHT22;501;48.214;11.350;2023-08-12T08:41:19;25.10;41.40
1025;DHT22;501;48.214;11.350;2023-08-12T08:43:47;25.20;41.40
1025;DHT22;501;48.214;11.350;2023-08-12T08:46:15;25.30;40.90
1025;DHT22;501;48.214;11.350;2023-08-12T08:48:44;25.30;41.40
1025;DHT22;501;48.214;11.350;2023-08-12T08:51:11;25.50;41.50
1025;DHT22;501;48.214;11.350;2023-08-12T08:53:40;25.60;41.70
1025;DHT22;501;48.214;11.350;2023-08-12T08:56:07;25.70;40.50
1025;DHT22;501;48.214;11.350;2023-08-12T08:58:33;25.80;39.10
1025;DHT22;501;48.214;11.350;2023-08-12T09:00:59;25.90;39.90
1025;DHT22;501;48.214;11.350;2023-08-12T09:03:25;25.90;41.30
1025;DHT22;501;48.214;11.350;2023-08-12T09:05:53;26.10;39.90
1025;DHT22;501;48.214;11.350;2023-08-12T09:08:20;26.10;38.20
1025;DHT22;501;48.214;11.350;2023-08-12T09:10:47;26.20;39.20
1025;DHT22;501;48.214;11.350;2023-08-12T09:13:13;26.20;40.00
1025;DHT22;501;48.214;11.350;2023-08-12T09:15:40;26.30;39.50
1025;DHT22;501;48.214;11.350;2023-08-12T09:18:06;26.40;39.00
1025;DHT22;501;48.214;11.350;2023-08-12T09:20:33;26.50;38.60
1025;DHT22;501;48.214;11.350;2023-08-12T09:22:59;26.70;37.80
1025;DHT22;501;48.214;11.350;2023-08-12T09:25:28;26.70;37.60
1025;DHT22;501;48.214;11.350;2023-08-12T09:28:00;26.80;38.40
1025;DHT22;501;48.214;11.350;2023-08-12T09:30:29;26.80;37.00
1025;DHT22;501;48.214;11.350;2023-08-12T09:33:00;26.80;38.70
1025;DHT22;501;48.214;11.350;2023-08-12T09:35:33;26.90;36.70
1025;DHT22;501;48.214;11.350;2023-08-12T09:38:00;26.90;36.70
1025;DHT22;501;48.214;11.350;2023-08-12T09:40:26;26.90;37.20
1025;DHT22;501;48.214;11.350;2023-08-12T09:42:52;27.00;36.70
1025;DHT22;501;48.214;11.350;2023-08-12T09:45:18;27.00;36.10
1025;DHT22;501;48.214;11.350;2023-08-12T09:47:46;27.00;37.30
1025;DHT22;501;48.214;11.350;2023-08-12T09:50:11;27.10;36.80
1025;DHT22;501;48.214;11.350;2023-08-12T09:52:39;27.20;36.90
1025;DHT22;501;48.214;11.350;2023-08-12T09:55:07;27.20;37.30
1025;DHT22;501;48.214;11.350;2023-08-12T09:57:33;27.30;38.40
1025;DHT22;501;48.214;11.350;2023-08-12T10:00:02;27.30;36.90
1025;DHT22;501;48.214;11.350;2023-08-12T10:02:29;27.30;36.90
1025;DHT22;501;48.214;11.350;2023-08-12T10:04:56;27.40;35.60
1025;DHT22;501;48.214;11.350;2023-08-12T10:07:23;27.50;34.90
1025;DHT22;501;48.214;11.350;2023-08-12T10:09:48;27.40;33.50
1025;DHT22;501;48.214;11.350;2023-08-12T10:12:15;27.50;34.50
1025;DHT22;501;48.214;11.350;2023-08-12T10:14:41;27.50;32.20
1025;DHT22;501;48.214;11.350;2023-08-12T10:17:08;27.70;33.20
1025;DHT22;501;48.214;11.350;2023-08-12T10:19:35;27.70;34.40
1025;DHT22;501;48.214;11.350;2023-08-12T10:22:03;27.70;34.30
1025;DHT22;501;48.214;11.350;2023-08-12T10:24:29;27.70;34.30
1025;DHT22;501;48.214;11.350;2023-08-12T10:26:55;27.80;34.00
1025;DHT22;501;48.214;11.350;2023-08-12T10:29:23;27.80;33.80
1025;DHT22;501;48.214;11.350;2023-08-12T10:31:50;27.80;33.90
1025;DHT22;501;48.214;11.350;2023-08-12T10:34:24;27.80;36.00
1025;DHT22;501;48.214;11.350;2023-08-12T10:36:57;28.00;34.50
1025;DHT22;501;48.214;11.350;2023-08-12T10:39:26;28.00;33.60
1025;DHT22;501;48.214;11.350;2023-08-12T10:41:55;28.10;32.60
1025;DHT22;501;48.214;11.350;2023-08-12T10:44:21;28.20;33.80
1025;DHT22;501;48.214;11.350;2023-08-12T10:46:52;28.20;32.70
1025;DHT22;501;48.214;11.350;2023-08-12T10:49:21;28.20;32.80
1025;DHT22;501;48.214;11.350;2023-08-12T10:51:48;28.20;32.80
1025;DHT22;501;48.214;11.350;2023-08-12T11:04:56;28.20;33.40
1025;DHT22;501;48.214;11.350;2023-08-12T11:07:29;28.20;31.10
1025;DHT22;501;48.214;11.350;2023-08-12T11:10:00;28.20;30.10
1025;DHT22;501;48.214;11.350;2023-08-12T11:12:35;28.10;30.80
1025;DHT22;501;48.214;11.350;2023-08-12T11:15:03;28.10;31.80
1025;DHT22;501;48.214;11.350;2023-08-12T11:17:40;28.20;31.60
1025;DHT22;501;48.214;11.350;2023-08-12T11:20:10;28.20;31.50
1025;DHT22;501;48.214;11.350;2023-08-12T11:22:38;28.20;30.90
1025;DHT22;501;48.214;11.350;2023-08-12T11:25:09;28.20;30.70
1025;DHT22;501;48.214;11.350;2023-08-12T11:27:42;28.20;31.50
1025;DHT22;501;48.214;11.350;2023-08-12T11:30:13;28.30;32.00
1025;DHT22;501;48.214;11.350;2023-08-12T11:32:44;28.40;32.80
1025;DHT22;501;48.214;11.350;2023-08-12T11:35:12;28.60;33.00
1025;DHT22;501;48.214;11.350;2023-08-12T11:37:39;28.70;30.70
1025;DHT22;501;48.214;11.350;2023-08-12T11:40:05;29.00;30.00
1025;DHT22;501;48.214;11.350;2023-08-12T11:42:32;29.30;29.30
1025;DHT22;501;48.214;11.350;2023-08-12T11:44:58;29.50;29.10
1025;DHT22;501;48.214;11.350;2023-08-12T11:47:23;29.80;29.00
1025;DHT22;501;48.214;11.350;2023-08-12T11:49:49;30.10;29.10
1025;DHT22;501;48.214;11.350;2023-08-12T11:52:15;30.40;28.90
1025;DHT22;501;48.214;11.350;2023-08-12T11:54:40;30.80;28.60
1025;DHT22;501;48.214;11.350;2023-08-12T11:57:06;31.20;27.10
1025;DHT22;501;48.214;11.350;2023-08-12T11:59:32;31.70;24.70
1025;DHT22;501;48.214;11.350;2023-08-12T12:01:57;32.00;24.60
1025;DHT22;501;48.214;11.350;2023-08-12T12:04:26;32.30;23.90
1025;DHT22;501;48.214;11.350;2023-08-12T12:06:52;32.50;24.70
1025;DHT22;501;48.214;11.350;2023-08-12T12:09:18;32.60;24.30
1025;DHT22;501;48.214;11.350;2023-08-12T12:11:44;32.60;24.40
1025;DHT22;501;48.214;11.350;2023-08-12T12:14:10;32.60;23.90
1025;DHT22;501;48.214;11.350;2023-08-12T12:16:46;32.40;23.80
1025;DHT22;501;48.214;11.350;2023-08-12T12:19:17;32.30;23.90
1025;DHT22;501;48.214;11.350;2023-08-12T12:21:52;32.30;24.90
1025;DHT22;501;48.214;11.350;2023-08-12T12:24:19;32.40;24.50
1025;DHT22;501;48.214;11.350;2023-08-12T12:26:45;32.40;24.40
1025;DHT22;501;48.214;11.350;2023-08-12T12:29:11;32.50;25.80
1025;DHT22;501;48.214;11.350;2023-08-12T12:31:40;32.80;23.90
1025;DHT22;501;48.214;11.350;2023-08-12T12:34:07;33.00;24.90
1025;DHT22;501;48.214;11.350;2023-08-12T12:36:35;33.40;24.10
1025;DHT22;501;48.214;11.350;2023-08-12T12:39:02;33.90;22.10
1025;DHT22;501;48.214;11.350;2023-08-12T12:41:28;34.00;19.90
1025;DHT22;501;48.214;11.350;2023-08-12T12:43:54;34.30;22.50
1025;DHT22;501;48.214;11.350;2023-08-12T12:46:20;34.70;24.20
1025;DHT22;501;48.214;11.350;2023-08-12T12:48:45;35.20;20.50
1025;DHT22;501;48.214;11.350;2023-08-12T12:51:12;35.60;18.70
1025;DHT22;501;48.214;11.350;2023-08-12T12:53:38;35.50;17.70
1025;DHT22;501;48.214;11.350;2023-08-12T12:56:03;35.10;18.10
1025;DHT22;501;48.214;11.350;2023-08-12T12:58:33;34.60;17.80
1025;DHT22;501;48.214;11.350;2023-08-12T13:01:00;34.20;19.20
1025;DHT22;501;48.214;11.350;2023-08-12T13:03:26;33.80;19.70
1025;DHT22;501;48.214;11.350;2023-08-12T13:05:52;33.50;20.90
1025;DHT22;501;48.214;11.350;2023-08-12T13:08:18;33.40;20.70
1025;DHT22;501;48.214;11.350;2023-08-12T13:10:43;33.20;20.80
1025;DHT22;501;48.214;11.350;2023-08-12T13:13:09;33.10;21.10
1025;DHT22;501;48.214;11.350;2023-08-12T13:15:35;32.90;21.50
1025;DHT22;501;48.214;11.350;2023-08-12T13:18:01;32.70;22.10
1025;DHT22;501;48.214;11.350;2023-08-12T13:20:26;32.70;23.00
1025;DHT22;501;48.214;11.350;2023-08-12T13:22:52;32.90;22.80
1025;DHT22;501;48.214;11.350;2023-08-12T13:25:18;33.30;23.20
1025;DHT22;501;48.214;11.350;2023-08-12T13:27:43;33.80;21.70
1025;DHT22;501;48.214;11.350;2023-08-12T13:30:09;34.10;20.80
1025;DHT22;501;48.214;11.350;2023-08-12T13:32:37;34.20;21.40
1025;DHT22;501;48.214;11.350;2023-08-12T13:35:03;34.40;21.10
1025;DHT22;501;48.214;11.350;2023-08-12T13:37:29;34.70;20.30
1025;DHT22;501;48.214;11.350;2023-08-12T13:39:55;35.00;22.10
1025;DHT22;501;48.214;11.350;2023-08-12T13:42:20;35.30;21.70
1025;DHT22;501;48.214;11.350;2023-08-12T13:44:46;35.60;21.20
1025;DHT22;501;48.214;11.350;2023-08-12T13:47:11;36.00;20.50
1025;DHT22;501;48.214;11.350;2023-08-12T13:49:37;36.20;19.30
1025;DHT22;501;48.214;11.350;2023-08-12T13:52:03;36.20;19.60
1025;DHT22;501;48.214;11.350;2023-08-12T13:54:29;36.10;19.00
1025;DHT22;501;48.214;11.350;2023-08-12T13:56:54;35.90;19.30
1025;DHT22;501;48.214;11.350;2023-08-12T13:59:20;35.80;19.80
1025;DHT22;501;48.214;11.350;2023-08-12T14:01:45;35.70;19.80
1025;DHT22;501;48.214;11.350;2023-08-12T14:04:11;35.60;19.70
1025;DHT22;501;48.214;11.350;2023-08-12T14:06:38;35.30;19.70
1025;DHT22;501;48.214;11.350;2023-08-12T14:09:05;35.20;21.10
1025;DHT22;501;48.214;11.350;2023-08-12T14:11:33;35.20;21.20
1025;DHT22;501;48.214;11.350;2023-08-12T14:13:59;35.10;21.10
1025;DHT22;501;48.214;11.350;2023-08-12T14:16:24;34.90;21.30
1025;DHT22;501;48.214;11.350;2023-08-12T14:18:51;34.70;21.80
1025;DHT22;501;48.214;11.350;2023-08-12T14:21:16;34.50;20.60
1025;DHT22;501;48.214;11.350;2023-08-12T14:23:42;34.20;20.20
1025;DHT22;501;48.214;11.350;2023-08-12T14:26:07;33.80;20.40
1025;DHT22;501;48.214;11.350;2023-08-12T14:28:33;33.60;21.80
1025;DHT22;501;48.214;11.350;2023-08-12T14:30:58;33.40;22.50
1025;DHT22;501;48.214;11.350;2023-08-12T14:33:24;33.20;23.10
1025;DHT22;501;48.214;11.350;2023-08-12T14:35:51;33.10;22.40
1025;DHT22;501;48.214;11.350;2023-08-12T14:38:18;32.90;23.40
1025;DHT22;501;48.214;11.350;2023-08-12T14:40:47;32.60;23.10
1025;DHT22;501;48.214;11.350;2023-08-12T14:43:13;32.30;24.30
1025;DHT22;501;48.214;11.350;2023-08-12T14:45:39;32.00;23.20
1025;DHT22;501;48.214;11.350;2023-08-12T14:48:05;31.60;23.50
1025;DHT22;501;48.214;11.350;2023-08-12T14:50:30;31.40;24.10
1025;DHT22;501;48.214;11.350;2023-08-12T14:52:56;31.20;23.70
1025;DHT22;501;48.214;11.350;2023-08-12T14:55:22;30.90;24.00
1025;DHT22;501;48.214;11.350;2023-08-12T14:57:47;30.80;24.20
1025;DHT22;501;48.214;11.350;2023-08-12T15:00:13;30.70;25.00
1025;DHT22;501;48.214;11.350;2023-08-12T15:02:40;30.50;24.70
1025;DHT22;501;48.214;11.350;2023-08-12T15:05:05;30.50;25.90
1025;DHT22;501;48.214;11.350;2023-08-12T15:07:32;30.40;26.50
1025;DHT22;501;48.214;11.350;2023-08-12T15:09:57;30.40;25.30
1025;DHT22;501;48.214;11.350;2023-08-12T15:12:25;30.30;26.60
1025;DHT22;501;48.214;11.350;2023-08-12T15:14:50;30.20;26.40
1025;DHT22;501;48.214;11.350;2023-08-12T15:17:16;30.20;26.30
1025;DHT22;501;48.214;11.350;2023-08-12T15:19:41;30.10;25.00
1025;DHT22;501;48.214;11.350;2023-08-12T15:22:07;30.10;25.60
1025;DHT22;501;48.214;11.350;2023-08-12T15:24:33;30.00;25.20
1025;DHT22;501;48.214;11.350;2023-08-12T15:26:58;29.90;24.50
1025;DHT22;501;48.214;11.350;2023-08-12T15:29:24;30.10;25.70
1025;DHT22;501;48.214;11.350;2023-08-12T15:31:50;30.30;25.70
1025;DHT22;501;48.214;11.350;2023-08-12T15:34:16;30.40;24.30
1025;DHT22;501;48.214;11.350;2023-08-12T15:36:41;30.40;25.80
1025;DHT22;501;48.214;11.350;2023-08-12T15:39:07;30.40;25.40
1025;DHT22;501;48.214;11.350;2023-08-12T15:41:33;30.40;25.10
1025;DHT22;501;48.214;11.350;2023-08-12T15:43:59;30.20;25.70
1025;DHT22;501;48.214;11.350;2023-08-12T15:46:25;30.20;26.10
1025;DHT22;501;48.214;11.350;2023-08-12T15:48:50;30.20;25.40
1025;DHT22;501;48.214;11.350;2023-08-12T15:51:16;30.30;26.20
1025;DHT22;501;48.214;11.350;2023-08-12T15:53:42;30.40;26.80
1025;DHT22;501;48.214;11.350;2023-08-12T15:56:07;30.50;27.10
1025;DHT22;501;48.214;11.350;2023-08-12T15:58:33;30.60;26.60
1025;DHT22;501;48.214;11.350;2023-08-12T16:00:59;30.70;26.50
1025;DHT22;501;48.214;11.350;2023-08-12T16:03:25;30.80;26.50
1025;DHT22;501;48.214;11.350;2023-08-12T16:05:50;31.00;26.80
1025;DHT22;501;48.214;11.350;2023-08-12T16:08:21;31.10;26.80